Aérodrome :
LOGIN :

S'inscrire | Disclaimer

   EN    FR    IT 

 










Légende :    VFR   VFR Marginal   IFR   IFR Intensif   IFR Très Intensif
Visi : 
Plafond : 
>= 8 km
>= 3000ft
5 à 8 km
1000 à 3000 ft
1500m à 5 km
500 à 1000 ft
800 à 1500m
200 à 500 ft
< 800m
< 200 ft
Symboles :   Orages  Brouillard  Fortes neiges  Fortes précipitations  Vent > 20 kt
SIGMETs :   Divers  Orages  Givrage  Turbulence  Onde Orograph.  Cendres Volcan.







- Altitude de l'aérodrome : 123 ft
- Code IATA : BLQ


LIPE - Bologna Guglielmo Marconi

DERNIER METAR :
  • 221620Z 04004KT 6000 BKN055 11/08 Q1019

METARs EXPIRÉS :
  • 221550Z 05004KT 7000 SCT055 11/08 Q1019
  • 221520Z 06003KT 9000 FEW060 12/08 Q1019
  • 221450Z 08003KT 9999 FEW060 12/08 Q1019
  • 221420Z 09003KT 050V110 9999 FEW040 13/08 Q1020
  • 221350Z 10004KT 070V140 9999 FEW050 13/08 Q1020
  • 221320Z 10004KT 060V120 9999 FEW050 13/08 Q1020

TAF TAF LIPE
Valide du 22 à 12h jusqu'au 23 à 12h UTC


221100Z 2212/2312 VRB05KT CAVOK
TEMPO 2222/2307 1500 BR
Pas de NOTAMs connus pour ce terrain.



MET'MAP, la Météo Aéronautique d'un coup d'oeil ! - Copyright ORBIFLY Décembre 2007 - Disclaimer

ORBIFLY MET'MAP TEAM :

Programmation & Développement : Alexandra Zaïnal
Conception & Développement : Baudouin d'Aumeries
Co-Programmation & Développement : Marc-Olivier Méhu
Soutien technique & logistique : Manuel Goepfert

Contact : metmap@orbifly.com




SOURCES & CREDITS :

   NOAA